createdAt,value
2018-09-11T00:01:02.157Z,728
2018-09-11T00:02:09.094Z,728
2018-09-11T00:03:16.309Z,727
2018-09-11T00:04:23.516Z,729
2018-09-11T00:05:30.728Z,727
2018-09-11T00:06:37.944Z,728
2018-09-11T00:07:45.154Z,728
2018-09-11T00:08:52.363Z,728
2018-09-11T00:09:59.582Z,729
2018-09-11T00:11:06.790Z,728
2018-09-11T00:12:14.219Z,729
2018-09-11T00:13:21.154Z,729
2018-09-11T00:14:28.090Z,729
2018-09-11T00:15:35.313Z,729
2018-09-11T00:16:42.538Z,730
2018-09-11T00:17:49.749Z,729
2018-09-11T00:18:56.690Z,728
2018-09-11T00:20:03.902Z,729
2018-09-11T00:21:11.117Z,729
2018-09-11T00:22:18.330Z,729
2018-09-11T00:23:25.541Z,728
2018-09-11T00:24:32.749Z,728
2018-09-11T00:25:39.960Z,728
2018-09-11T00:26:47.169Z,728
2018-09-11T00:27:54.377Z,728
2018-09-11T00:29:01.595Z,728
2018-09-11T00:30:08.807Z,729
2018-09-11T00:31:16.017Z,729
2018-09-11T00:32:23.223Z,729
2018-09-11T00:33:30.440Z,730
2018-09-11T00:34:37.651Z,731
2018-09-11T00:35:44.860Z,730
2018-09-11T00:36:51.797Z,730
2018-09-11T00:37:59.036Z,730
2018-09-11T00:39:05.986Z,731
2018-09-11T00:40:13.200Z,731
2018-09-11T00:41:20.411Z,730
2018-09-11T00:42:27.620Z,730
2018-09-11T00:43:34.830Z,729
2018-09-11T00:44:42.045Z,729
2018-09-11T00:45:49.252Z,730
2018-09-11T00:46:56.468Z,729
2018-09-11T00:48:03.683Z,730
2018-09-11T00:49:10.888Z,730
2018-09-11T00:50:18.103Z,730
2018-09-11T00:51:25.514Z,729
2018-09-11T00:52:32.725Z,729
2018-09-11T00:53:39.935Z,728
2018-09-11T00:54:47.145Z,729
2018-09-11T00:55:54.359Z,728
2018-09-11T00:57:01.570Z,729
2018-09-11T00:58:08.510Z,729
2018-09-11T00:59:15.726Z,729
2018-09-11T01:00:22.939Z,729
2018-09-11T01:01:30.159Z,728
2018-09-11T01:02:37.371Z,729
2018-09-11T01:03:44.584Z,730
2018-09-11T01:04:51.794Z,729
2018-09-11T01:05:59.001Z,729
2018-09-11T01:07:06.208Z,729
2018-09-11T01:08:13.440Z,729
2018-09-11T01:09:20.648Z,730
2018-09-11T01:10:27.862Z,730
2018-09-11T01:11:34.798Z,729
2018-09-11T01:12:41.742Z,729
2018-09-11T01:13:48.946Z,730
2018-09-11T01:14:55.885Z,729
2018-09-11T01:16:03.101Z,731
2018-09-11T01:17:10.311Z,729
2018-09-11T01:18:17.522Z,730
2018-09-11T01:19:24.730Z,729
2018-09-11T01:20:31.940Z,729
2018-09-11T01:21:39.153Z,729
2018-09-11T01:22:46.361Z,729
2018-09-11T01:23:53.300Z,729
2018-09-11T01:25:00.508Z,730
2018-09-11T01:26:07.776Z,729
2018-09-11T01:27:14.986Z,729
2018-09-11T01:28:22.204Z,728
2018-09-11T01:29:29.414Z,730
2018-09-11T01:30:36.619Z,728
2018-09-11T01:31:43.832Z,730
2018-09-11T01:32:51.045Z,729
2018-09-11T01:33:58.262Z,729
2018-09-11T01:35:05.190Z,729
2018-09-11T01:36:12.405Z,728
2018-09-11T01:37:19.649Z,728
2018-09-11T01:38:26.860Z,728
2018-09-11T01:39:34.072Z,727
2018-09-11T01:40:41.325Z,729
2018-09-11T01:41:48.543Z,727
2018-09-11T01:42:55.756Z,725
2018-09-11T01:44:02.694Z,727
2018-09-11T01:45:09.911Z,726
2018-09-11T01:46:17.122Z,726
2018-09-11T01:47:24.336Z,727
2018-09-11T01:48:31.548Z,726
2018-09-11T01:49:38.760Z,726
2018-09-11T01:50:45.969Z,727
2018-09-11T01:51:53.182Z,726
2018-09-11T01:53:00.395Z,726
2018-09-11T01:54:07.604Z,727
2018-09-11T01:55:14.809Z,725
2018-09-11T01:56:22.020Z,727
2018-09-11T01:57:29.229Z,725
2018-09-11T01:58:36.442Z,726
2018-09-11T01:59:43.651Z,726
2018-09-11T02:00:50.862Z,726
2018-09-11T02:01:58.071Z,727
2018-09-11T02:03:05.280Z,727
2018-09-11T02:04:12.216Z,728
2018-09-11T02:05:19.427Z,726
2018-09-11T02:06:26.639Z,727
2018-09-11T02:07:33.573Z,727
2018-09-11T02:08:40.782Z,728
2018-09-11T02:09:47.997Z,726
2018-09-11T02:10:55.214Z,726
2018-09-11T02:12:02.427Z,726
2018-09-11T02:13:09.359Z,725
2018-09-11T02:14:16.570Z,726
2018-09-11T02:15:23.782Z,727
2018-09-11T02:16:30.992Z,727
2018-09-11T02:17:38.204Z,727
2018-09-11T02:18:45.143Z,726
2018-09-11T02:19:52.357Z,726
2018-09-11T02:20:59.566Z,727
2018-09-11T02:22:06.496Z,726
2018-09-11T02:23:13.711Z,726
2018-09-11T02:24:20.650Z,726
2018-09-11T02:25:27.859Z,725
2018-09-11T02:26:35.103Z,726
2018-09-11T02:27:42.303Z,725
2018-09-11T02:28:49.238Z,725
2018-09-11T02:29:56.448Z,724
2018-09-11T02:31:03.658Z,724
2018-09-11T02:32:10.866Z,724
2018-09-11T02:33:17.797Z,726
2018-09-11T02:34:25.007Z,724
2018-09-11T02:35:32.281Z,723
2018-09-11T02:36:39.491Z,724
2018-09-11T02:37:46.699Z,724
2018-09-11T02:38:53.912Z,724
2018-09-11T02:40:01.196Z,725
2018-09-11T02:41:08.443Z,725
2018-09-11T02:42:15.648Z,724
2018-09-11T02:43:22.574Z,724
2018-09-11T02:44:29.787Z,724
2018-09-11T02:45:36.990Z,724
2018-09-11T02:46:44.200Z,723
2018-09-11T02:47:51.129Z,725
2018-09-11T02:48:58.072Z,725
2018-09-11T02:50:05.288Z,724
2018-09-11T02:51:12.498Z,724
2018-09-11T02:52:19.707Z,724
2018-09-11T02:53:26.918Z,725
2018-09-11T02:54:34.123Z,723
2018-09-11T02:55:41.063Z,724
2018-09-11T02:56:48.274Z,725
2018-09-11T02:57:55.488Z,725
2018-09-11T02:59:02.694Z,724
2018-09-11T03:00:09.917Z,725
2018-09-11T03:01:17.132Z,726
2018-09-11T03:02:24.337Z,725
2018-09-11T03:03:31.274Z,726
2018-09-11T03:04:38.488Z,726
2018-09-11T03:05:45.712Z,727
2018-09-11T03:06:52.927Z,728
2018-09-11T03:08:00.143Z,727
2018-09-11T03:09:07.341Z,727
2018-09-11T03:10:14.553Z,727
2018-09-11T03:11:21.813Z,727
2018-09-11T03:12:29.021Z,727
2018-09-11T03:13:36.229Z,726
2018-09-11T03:14:43.435Z,727
2018-09-11T03:15:50.647Z,728
2018-09-11T03:16:57.860Z,727
2018-09-11T03:18:05.071Z,724
2018-09-11T03:19:12.280Z,726
2018-09-11T03:20:19.497Z,726
2018-09-11T03:21:26.432Z,727
2018-09-11T03:22:33.370Z,728
2018-09-11T03:23:40.580Z,728
2018-09-11T03:24:48.021Z,728
2018-09-11T03:25:55.224Z,727
2018-09-11T03:27:02.164Z,728
2018-09-11T03:28:09.379Z,728
2018-09-11T03:29:16.620Z,729
2018-09-11T03:30:23.837Z,729
2018-09-11T03:31:31.050Z,728
2018-09-11T03:32:38.260Z,729
2018-09-11T03:33:45.470Z,730
2018-09-11T03:34:52.679Z,731
2018-09-11T03:35:59.889Z,732
2018-09-11T03:37:07.100Z,732
2018-09-11T03:38:14.308Z,733
2018-09-11T03:39:21.523Z,732
2018-09-11T03:40:28.734Z,733
2018-09-11T03:41:35.955Z,733
2018-09-11T03:42:43.166Z,733
2018-09-11T03:43:50.104Z,733
2018-09-11T03:44:57.318Z,733
2018-09-11T03:46:04.254Z,733
2018-09-11T03:47:11.194Z,733
2018-09-11T03:48:18.407Z,733
2018-09-11T03:49:25.620Z,734
2018-09-11T03:50:32.828Z,732
2018-09-11T03:51:40.034Z,732
2018-09-11T03:52:46.976Z,732
2018-09-11T03:53:53.910Z,732
2018-09-11T03:55:01.120Z,732
2018-09-11T03:56:08.333Z,732
2018-09-11T03:57:15.541Z,732
2018-09-11T03:58:22.765Z,732
2018-09-11T03:59:29.982Z,732
2018-09-11T04:00:37.193Z,731
2018-09-11T04:01:44.407Z,731
2018-09-11T04:02:51.617Z,731
2018-09-11T04:03:58.832Z,731
2018-09-11T04:05:06.050Z,730
2018-09-11T04:06:13.262Z,731
2018-09-11T04:07:20.464Z,731
2018-09-11T04:08:27.399Z,731
2018-09-11T04:09:34.609Z,733
2018-09-11T04:10:41.825Z,732
2018-09-11T04:11:49.036Z,732
2018-09-11T04:12:56.256Z,731
2018-09-11T04:14:03.190Z,731
2018-09-11T04:15:10.398Z,730
2018-09-11T04:16:17.609Z,731
2018-09-11T04:17:24.820Z,730
2018-09-11T04:18:32.030Z,730
2018-09-11T04:19:39.241Z,731
2018-09-11T04:20:46.447Z,730
2018-09-11T04:21:53.654Z,730
2018-09-11T04:23:00.866Z,728
2018-09-11T04:24:08.076Z,729
2018-09-11T04:25:15.280Z,731
2018-09-11T04:26:22.496Z,729
2018-09-11T04:27:29.712Z,730
2018-09-11T04:28:36.919Z,729
2018-09-11T04:29:44.129Z,729
2018-09-11T04:30:51.339Z,729
2018-09-11T04:31:58.550Z,728
2018-09-11T04:33:05.768Z,730
2018-09-11T04:34:12.976Z,729
2018-09-11T04:35:20.188Z,729
2018-09-11T04:36:27.578Z,729
2018-09-11T04:37:34.592Z,730
2018-09-11T04:38:41.802Z,730
2018-09-11T04:39:49.011Z,729
2018-09-11T04:40:56.222Z,730
2018-09-11T04:42:03.443Z,729
2018-09-11T04:43:11.030Z,729
2018-09-11T04:44:18.465Z,729
2018-09-11T04:45:25.689Z,730
2018-09-11T04:46:32.896Z,731
2018-09-11T04:47:40.108Z,732
2018-09-11T04:48:47.049Z,733
2018-09-11T04:49:54.259Z,732
2018-09-11T04:51:01.500Z,733
2018-09-11T04:52:08.451Z,733
2018-09-11T04:53:15.667Z,733
2018-09-11T04:54:22.864Z,733
2018-09-11T04:55:30.071Z,733
2018-09-11T04:56:37.282Z,733
2018-09-11T04:57:44.224Z,733
2018-09-11T04:58:51.431Z,733
2018-09-11T04:59:58.636Z,734
2018-09-11T05:01:05.853Z,733
2018-09-11T05:02:13.072Z,732
2018-09-11T05:03:20.284Z,732
2018-09-11T05:04:27.494Z,731
2018-09-11T05:05:34.714Z,731
2018-09-11T05:06:41.917Z,731
2018-09-11T05:07:49.131Z,731
2018-09-11T05:08:56.339Z,730
2018-09-11T05:10:03.555Z,730
2018-09-11T05:11:10.492Z,730
2018-09-11T05:12:17.708Z,728
2018-09-11T05:13:24.914Z,728
2018-09-11T05:14:32.131Z,727
2018-09-11T05:15:39.338Z,726
2018-09-11T05:16:46.007Z,727
2018-09-11T05:17:53.217Z,726
2018-09-11T05:19:00.268Z,725
2018-09-11T05:20:07.515Z,723
2018-09-11T05:21:14.727Z,725
2018-09-11T05:22:21.938Z,724
2018-09-11T05:23:29.145Z,722
2018-09-11T05:24:36.371Z,721
2018-09-11T05:25:43.589Z,720
2018-09-11T05:26:50.793Z,720
2018-09-11T05:27:57.732Z,719
2018-09-11T05:29:04.943Z,717
2018-09-11T05:30:12.162Z,715
2018-09-11T05:31:19.096Z,715
2018-09-11T05:32:26.299Z,713
2018-09-11T05:33:33.507Z,713
2018-09-11T05:34:40.729Z,712
2018-09-11T05:35:47.944Z,712
2018-09-11T05:36:55.144Z,710
2018-09-11T05:38:02.364Z,710
2018-09-11T05:39:09.552Z,710
2018-09-11T05:40:17.100Z,708
2018-09-11T05:41:24.306Z,706
2018-09-11T05:42:31.523Z,707
2018-09-11T05:43:38.735Z,707
2018-09-11T05:44:45.947Z,706
2018-09-11T05:45:53.160Z,705
2018-09-11T05:47:00.257Z,706
2018-09-11T05:48:07.483Z,705
2018-09-11T05:49:14.698Z,705
2018-09-11T05:50:21.927Z,705
2018-09-11T05:51:29.141Z,703
2018-09-11T05:52:36.349Z,705
2018-09-11T05:53:43.557Z,705
2018-09-11T05:54:50.776Z,705
2018-09-11T05:55:57.994Z,704
2018-09-11T05:57:04.969Z,705
2018-09-11T05:58:12.060Z,705
2018-09-11T05:59:19.303Z,704
2018-09-11T06:00:26.240Z,705
2018-09-11T06:01:33.457Z,705
2018-09-11T06:02:40.678Z,704
2018-09-11T06:03:47.622Z,706
2018-09-11T06:04:54.837Z,704
2018-09-11T06:06:02.052Z,701
2018-09-11T06:07:09.266Z,701
2018-09-11T06:08:16.488Z,699
2018-09-11T06:09:23.704Z,697
2018-09-11T06:10:30.912Z,694
2018-09-11T06:11:38.124Z,693
2018-09-11T06:12:45.337Z,691
2018-09-11T06:13:52.551Z,693
2018-09-11T06:14:59.763Z,694
2018-09-11T06:16:07.003Z,694
2018-09-11T06:17:14.232Z,693
2018-09-11T06:18:21.475Z,693
2018-09-11T06:19:28.685Z,694
2018-09-11T06:20:35.901Z,693
2018-09-11T06:21:43.106Z,691
2018-09-11T06:22:50.318Z,693
2018-09-11T06:23:57.536Z,694
2018-09-11T06:25:04.747Z,694
2018-09-11T06:26:11.968Z,695
2018-09-11T06:27:19.182Z,696
2018-09-11T06:28:26.390Z,697
2018-09-11T06:29:33.606Z,696
2018-09-11T06:30:40.821Z,698
2018-09-11T06:31:48.039Z,700
2018-09-11T06:32:55.247Z,699
2018-09-11T06:34:02.466Z,699
2018-09-11T06:35:09.710Z,701
2018-09-11T06:36:16.933Z,702
2018-09-11T06:37:24.152Z,703
2018-09-11T06:38:31.363Z,705
2018-09-11T06:39:38.312Z,704
2018-09-11T06:40:45.524Z,704
2018-09-11T06:41:52.740Z,706
2018-09-11T06:42:59.953Z,705
2018-09-11T06:44:07.171Z,706
2018-09-11T06:45:14.389Z,706
2018-09-11T06:46:21.617Z,707
2018-09-11T06:47:28.561Z,707
2018-09-11T06:48:35.796Z,707
2018-09-11T06:49:43.014Z,708
2018-09-11T06:50:50.223Z,707
2018-09-11T06:51:57.436Z,708
2018-09-11T06:53:04.655Z,707
2018-09-11T06:54:11.598Z,708
2018-09-11T06:55:18.816Z,709
2018-09-11T06:56:26.044Z,710
2018-09-11T06:57:33.260Z,711
2018-09-11T06:58:40.469Z,710
2018-09-11T06:59:47.407Z,711
2018-09-11T07:00:54.622Z,710
2018-09-11T07:02:02.493Z,712
2018-09-11T07:03:09.683Z,712
2018-09-11T07:04:16.626Z,712
2018-09-11T07:05:23.851Z,712
2018-09-11T07:06:31.063Z,712
2018-09-11T07:07:38.293Z,711
2018-09-11T07:08:45.234Z,713
2018-09-11T07:09:52.446Z,715
2018-09-11T07:10:59.661Z,714
2018-09-11T07:12:06.876Z,714
2018-09-11T07:13:13.818Z,714
2018-09-11T07:14:21.033Z,713
2018-09-11T07:15:28.244Z,713
2018-09-11T07:16:35.472Z,713
2018-09-11T07:17:42.690Z,713
2018-09-11T07:18:49.639Z,713
2018-09-11T07:19:57.230Z,715
2018-09-11T07:21:04.480Z,714
2018-09-11T07:22:11.723Z,715
2018-09-11T07:23:18.945Z,715
2018-09-11T07:24:26.172Z,714
2018-09-11T07:25:33.382Z,714
2018-09-11T07:26:40.597Z,715
2018-09-11T07:27:47.808Z,716
2018-09-11T07:28:55.020Z,717
2018-09-11T07:30:02.233Z,718
2018-09-11T07:31:09.443Z,717
2018-09-11T07:32:16.475Z,718
2018-09-11T07:33:23.714Z,718
2018-09-11T07:34:30.933Z,717
2018-09-11T07:35:38.146Z,717
2018-09-11T07:36:45.367Z,717
2018-09-11T07:37:52.704Z,717
2018-09-11T07:39:00.018Z,719
2018-09-11T07:40:07.239Z,719
2018-09-11T07:41:14.460Z,721
2018-09-11T07:42:21.673Z,721
2018-09-11T07:43:28.621Z,721
2018-09-11T07:44:35.846Z,721
2018-09-11T07:45:43.057Z,720
2018-09-11T07:46:50.286Z,720
2018-09-11T07:47:57.897Z,720
2018-09-11T07:49:05.115Z,720
2018-09-11T07:50:12.325Z,720
2018-09-11T07:51:19.540Z,719
2018-09-11T07:52:26.862Z,720
2018-09-11T07:53:33.804Z,719
2018-09-11T07:54:41.016Z,719
2018-09-11T07:55:48.241Z,719
2018-09-11T07:56:55.456Z,719
2018-09-11T07:58:03.016Z,720
2018-09-11T07:59:10.447Z,719
2018-09-11T08:00:17.685Z,718
2018-09-11T08:01:24.908Z,718
2018-09-11T08:02:32.129Z,719
2018-09-11T08:03:39.348Z,719
2018-09-11T08:04:46.282Z,719
2018-09-11T08:05:53.495Z,718
2018-09-11T08:07:00.440Z,718
2018-09-11T08:08:07.656Z,718
2018-09-11T08:09:14.595Z,718
2018-09-11T08:10:21.810Z,718
2018-09-11T08:11:29.030Z,718
2018-09-11T08:12:36.243Z,719
2018-09-11T08:13:43.190Z,720
2018-09-11T08:14:50.407Z,720
2018-09-11T08:15:57.628Z,720
2018-09-11T08:17:04.567Z,721
2018-09-11T08:18:11.794Z,721
2018-09-11T08:19:19.023Z,721
2018-09-11T08:20:26.233Z,719
2018-09-11T08:21:33.453Z,718
2018-09-11T08:22:40.664Z,718
2018-09-11T08:23:47.888Z,720
2018-09-11T08:24:55.098Z,719
2018-09-11T08:26:02.319Z,719
2018-09-11T08:27:09.537Z,718
2018-09-11T08:28:16.753Z,717
2018-09-11T08:29:24.197Z,719
2018-09-11T08:30:31.605Z,718
2018-09-11T08:31:38.550Z,717
2018-09-11T08:32:45.763Z,715
2018-09-11T08:33:52.971Z,714
2018-09-11T08:35:00.187Z,717
2018-09-11T08:36:07.409Z,718
2018-09-11T08:37:29.276Z,716
2018-09-11T08:38:36.492Z,716
2018-09-11T08:39:43.718Z,714
2018-09-11T08:40:50.974Z,714
2018-09-11T08:41:57.927Z,716
2018-09-11T08:43:05.137Z,714
2018-09-11T08:44:12.087Z,714
2018-09-11T08:45:19.299Z,714
2018-09-11T08:46:26.510Z,712
2018-09-11T08:47:33.727Z,714
2018-09-11T08:48:40.948Z,714
2018-09-11T08:49:48.167Z,715
2018-09-11T08:50:55.395Z,715
2018-09-11T08:52:02.714Z,715
2018-09-11T08:53:10.014Z,712
2018-09-11T08:54:17.233Z,714
2018-09-11T08:55:24.449Z,715
2018-09-11T08:56:31.672Z,713
2018-09-11T08:57:38.889Z,714
2018-09-11T08:58:46.105Z,714
2018-09-11T08:59:53.056Z,715
2018-09-11T09:01:00.280Z,717
2018-09-11T09:02:07.502Z,718
2018-09-11T09:03:14.714Z,719
2018-09-11T09:04:21.938Z,719
2018-09-11T09:05:29.146Z,718
2018-09-11T09:06:36.359Z,719
2018-09-11T09:07:43.301Z,718
2018-09-11T09:08:50.518Z,717
2018-09-11T09:09:57.769Z,718
2018-09-11T09:11:05.041Z,717
2018-09-11T09:12:11.985Z,717
2018-09-11T09:13:19.213Z,716
2018-09-11T09:14:26.426Z,716
2018-09-11T09:15:33.734Z,714
2018-09-11T09:16:41.080Z,715
2018-09-11T09:17:48.308Z,713
2018-09-11T09:18:55.527Z,714
2018-09-11T09:20:02.744Z,714
2018-09-11T09:21:09.964Z,714
2018-09-11T09:22:17.205Z,715
2018-09-11T09:23:24.422Z,713
2018-09-11T09:24:31.361Z,711
2018-09-11T09:25:38.579Z,710
2018-09-11T09:26:45.793Z,712
2018-09-11T09:27:52.502Z,712
2018-09-11T09:28:59.724Z,713
2018-09-11T09:30:06.941Z,712
2018-09-11T09:31:14.160Z,712
2018-09-11T09:32:21.381Z,712
2018-09-11T09:33:28.600Z,712
2018-09-11T09:34:35.817Z,711
2018-09-11T09:35:43.035Z,712
2018-09-11T09:36:50.401Z,713
2018-09-11T09:37:57.414Z,713
2018-09-11T09:39:04.639Z,713
2018-09-11T09:40:11.861Z,712
2018-09-11T09:41:19.080Z,711
2018-09-11T09:42:26.293Z,714
2018-09-11T09:43:33.513Z,712
2018-09-11T09:44:40.728Z,714
2018-09-11T09:45:47.672Z,713
2018-09-11T09:46:54.889Z,711
2018-09-11T09:48:02.113Z,711
2018-09-11T09:49:09.332Z,711
2018-09-11T09:50:16.555Z,710
2018-09-11T09:51:23.500Z,711
2018-09-11T09:52:30.966Z,710
2018-09-11T09:53:37.639Z,711
2018-09-11T09:54:44.864Z,711
2018-09-11T09:55:52.085Z,709
2018-09-11T09:56:59.303Z,709
2018-09-11T09:58:06.519Z,709
2018-09-11T09:59:13.468Z,709
2018-09-11T10:00:20.686Z,708
2018-09-11T10:01:27.904Z,705
2018-09-11T10:02:35.139Z,705
2018-09-11T10:03:42.360Z,704
2018-09-11T10:04:49.736Z,703
2018-09-11T10:05:57.300Z,702
2018-09-11T10:07:04.526Z,699
2018-09-11T10:08:11.763Z,697
2018-09-11T10:09:18.990Z,696
2018-09-11T10:10:26.208Z,695
2018-09-11T10:11:33.465Z,697
2018-09-11T10:12:40.748Z,698
2018-09-11T10:13:47.972Z,696
2018-09-11T10:14:55.187Z,690
2018-09-11T10:16:02.157Z,690
2018-09-11T10:17:09.097Z,690
2018-09-11T10:18:16.529Z,690
2018-09-11T10:19:23.756Z,689
2018-09-11T10:20:30.976Z,687
2018-09-11T10:21:38.212Z,688
2018-09-11T10:22:45.172Z,682
2018-09-11T10:23:52.397Z,685
2018-09-11T10:24:59.352Z,686
2018-09-11T10:26:06.574Z,683
2018-09-11T10:27:13.520Z,681
2018-09-11T10:28:20.747Z,678
2018-09-11T10:29:27.972Z,675
2018-09-11T10:30:35.194Z,680
2018-09-11T10:31:42.414Z,683
2018-09-11T10:32:49.631Z,680
2018-09-11T10:33:56.954Z,680
2018-09-11T10:35:04.173Z,684
2018-09-11T10:36:11.390Z,686
2018-09-11T10:37:18.612Z,681
2018-09-11T10:38:25.817Z,673
2018-09-11T10:39:33.159Z,678
2018-09-11T10:40:40.587Z,684
2018-09-11T10:41:47.803Z,682
2018-09-11T10:42:55.025Z,682
2018-09-11T10:44:02.242Z,681
2018-09-11T10:45:09.770Z,672
2018-09-11T10:46:17.468Z,669
2018-09-11T10:47:24.689Z,676
2018-09-11T10:48:31.913Z,682
2018-09-11T10:49:39.133Z,688
2018-09-11T10:50:46.351Z,685
2018-09-11T10:51:53.717Z,683
2018-09-11T10:53:01.031Z,682
2018-09-11T10:54:08.252Z,680
2018-09-11T10:55:15.468Z,680
2018-09-11T10:56:23.054Z,678
2018-09-11T10:57:30.485Z,679
2018-09-11T10:58:37.703Z,680
2018-09-11T10:59:44.928Z,678
2018-09-11T11:00:52.147Z,681
2018-09-11T11:01:59.381Z,681
2018-09-11T11:03:06.595Z,677
2018-09-11T11:04:13.814Z,678
2018-09-11T11:05:21.032Z,671
2018-09-11T11:06:28.293Z,673
2018-09-11T11:07:35.538Z,676
2018-09-11T11:08:42.476Z,674
2018-09-11T11:09:49.694Z,680
2018-09-11T11:10:56.913Z,677
2018-09-11T11:12:04.130Z,674
2018-09-11T11:13:11.357Z,677
2018-09-11T11:14:18.586Z,686
2018-09-11T11:15:25.811Z,691
2018-09-11T11:16:33.033Z,688
2018-09-11T11:17:40.264Z,687
2018-09-11T11:18:47.483Z,687
2018-09-11T11:19:54.705Z,685
2018-09-11T11:21:02.088Z,684
2018-09-11T11:22:09.310Z,686
2018-09-11T11:23:16.543Z,681
2018-09-11T11:24:23.766Z,679
2018-09-11T11:25:30.708Z,683
2018-09-11T11:26:37.930Z,681
2018-09-11T11:27:45.146Z,681
2018-09-11T11:28:52.364Z,679
2018-09-11T11:29:59.305Z,674
2018-09-11T11:31:06.526Z,676
2018-09-11T11:32:13.748Z,671
2018-09-11T11:33:20.962Z,672
2018-09-11T11:34:28.189Z,669
2018-09-11T11:35:35.413Z,666
2018-09-11T11:36:43.308Z,667
2018-09-11T11:37:50.958Z,669
2018-09-11T11:38:58.177Z,666
2018-09-11T11:40:05.404Z,663
2018-09-11T11:41:12.621Z,666
2018-09-11T11:42:20.112Z,669
2018-09-11T11:43:27.509Z,669
2018-09-11T11:44:34.721Z,671
2018-09-11T11:45:41.945Z,663
2018-09-11T11:46:49.162Z,665
2018-09-11T11:47:56.380Z,667
2018-09-11T11:49:03.602Z,662
2018-09-11T11:50:10.826Z,662
2018-09-11T11:51:18.053Z,660
2018-09-11T11:52:24.999Z,666
2018-09-11T11:53:32.221Z,664
2018-09-11T11:54:39.484Z,665
2018-09-11T11:55:46.698Z,667
2018-09-11T11:56:53.922Z,671
2018-09-11T11:58:01.150Z,670
2018-09-11T11:59:08.364Z,662
2018-09-11T12:00:15.312Z,665
2018-09-11T12:01:22.646Z,665
2018-09-11T12:02:30.005Z,665
2018-09-11T12:03:37.227Z,658
2018-09-11T12:04:44.453Z,654
2018-09-11T12:05:51.676Z,654
2018-09-11T12:06:58.899Z,657
2018-09-11T12:08:06.122Z,658
2018-09-11T12:09:13.068Z,665
2018-09-11T12:10:20.290Z,663
2018-09-11T12:11:27.236Z,661
2018-09-11T12:12:34.455Z,659
2018-09-11T12:13:41.675Z,655
2018-09-11T12:14:48.900Z,657
2018-09-11T12:15:56.121Z,661
2018-09-11T12:17:03.627Z,657
2018-09-11T12:18:10.972Z,661
2018-09-11T12:19:18.193Z,656
2018-09-11T12:20:25.415Z,655
2018-09-11T12:21:32.634Z,658
2018-09-11T12:22:39.853Z,664
2018-09-11T12:23:47.074Z,658
2018-09-11T12:24:54.292Z,655
2018-09-11T12:26:01.508Z,653
2018-09-11T12:27:08.728Z,649
2018-09-11T12:28:15.948Z,656
2018-09-11T12:29:22.885Z,659
2018-09-11T12:30:30.104Z,652
2018-09-11T12:31:37.332Z,650
2018-09-11T12:32:44.551Z,651
2018-09-11T12:33:51.769Z,650
2018-09-11T12:34:58.995Z,644
2018-09-11T12:36:06.212Z,653
2018-09-11T12:37:13.430Z,654
2018-09-11T12:38:20.644Z,657
2018-09-11T12:39:27.858Z,653
2018-09-11T12:40:35.076Z,651
2018-09-11T12:41:42.019Z,646
2018-09-11T12:42:49.238Z,649
2018-09-11T12:43:56.201Z,655
2018-09-11T12:45:03.429Z,655
2018-09-11T12:46:11.792Z,653
2018-09-11T12:47:20.724Z,653
2018-09-11T12:48:29.428Z,659
2018-09-11T12:49:36.822Z,661
2018-09-11T12:50:44.056Z,660
2018-09-11T12:51:50.999Z,656
2018-09-11T12:52:58.226Z,650
2018-09-11T12:54:05.439Z,654
2018-09-11T12:55:12.662Z,649
2018-09-11T12:56:19.628Z,655
2018-09-11T12:57:26.850Z,652
2018-09-11T12:58:33.797Z,651
2018-09-11T12:59:40.734Z,651
2018-09-11T13:00:47.956Z,651
2018-09-11T13:01:55.184Z,647
2018-09-11T13:03:02.407Z,643
2018-09-11T13:04:09.624Z,641
2018-09-11T13:05:16.841Z,636
2018-09-11T13:06:24.061Z,636
2018-09-11T13:07:31.004Z,637
2018-09-11T13:08:38.220Z,643
2018-09-11T13:09:45.435Z,644
2018-09-11T13:10:52.806Z,648
2018-09-11T13:12:00.043Z,646
2018-09-11T13:13:07.262Z,642
2018-09-11T13:14:14.477Z,645
2018-09-11T13:15:21.700Z,644
2018-09-11T13:16:28.916Z,643
2018-09-11T13:17:36.199Z,641
2018-09-11T13:18:43.130Z,644
2018-09-11T13:19:50.086Z,646
2018-09-11T13:20:57.390Z,639
2018-09-11T13:22:04.612Z,645
2018-09-11T13:23:11.828Z,644
2018-09-11T13:24:19.048Z,643
2018-09-11T13:25:26.539Z,644
2018-09-11T13:26:33.975Z,648
2018-09-11T13:27:40.920Z,647
2018-09-11T13:28:48.151Z,648
2018-09-11T13:29:55.372Z,649
2018-09-11T13:31:02.588Z,646
2018-09-11T13:32:09.813Z,645
2018-09-11T13:33:17.032Z,644
2018-09-11T13:34:24.266Z,643
2018-09-11T13:35:31.491Z,638
2018-09-11T13:36:38.432Z,635
2018-09-11T13:37:45.372Z,638
2018-09-11T13:38:52.595Z,654
2018-09-11T13:39:59.546Z,659
2018-09-11T13:41:06.770Z,652
2018-09-11T13:42:13.995Z,640
2018-09-11T13:43:20.960Z,638
2018-09-11T13:44:28.179Z,644
2018-09-11T13:45:35.402Z,641
2018-09-11T13:46:42.630Z,648
2018-09-11T13:47:50.079Z,646
2018-09-11T13:48:57.430Z,654
2018-09-11T13:50:04.658Z,654
2018-09-11T13:51:11.880Z,647
2018-09-11T13:52:19.107Z,653
2018-09-11T13:53:26.324Z,654
2018-09-11T13:54:33.544Z,654
2018-09-11T13:55:40.770Z,650
2018-09-11T13:56:47.990Z,649
2018-09-11T13:57:55.214Z,648
2018-09-11T13:59:02.445Z,649
2018-09-11T14:00:09.670Z,650
2018-09-11T14:01:16.890Z,647
2018-09-11T14:02:24.163Z,637
2018-09-11T14:03:31.403Z,638
2018-09-11T14:04:38.628Z,633
2018-09-11T14:05:45.866Z,637
2018-09-11T14:06:53.087Z,637
2018-09-11T14:08:00.308Z,639
2018-09-11T14:09:06.985Z,635
2018-09-11T14:10:14.217Z,638
2018-09-11T14:11:21.441Z,641
2018-09-11T14:12:28.395Z,640
2018-09-11T14:13:35.620Z,638
2018-09-11T14:14:42.845Z,638
2018-09-11T14:15:49.900Z,639
2018-09-11T14:16:57.269Z,636
2018-09-11T14:18:04.515Z,638
2018-09-11T14:19:11.740Z,632
2018-09-11T14:20:18.961Z,643
2018-09-11T14:21:26.003Z,643
2018-09-11T14:22:33.226Z,642
2018-09-11T14:23:40.452Z,641
2018-09-11T14:24:47.670Z,643
2018-09-11T14:25:54.890Z,641
2018-09-11T14:27:01.835Z,643
2018-09-11T14:28:09.060Z,642
2018-09-11T14:29:16.279Z,637
2018-09-11T14:30:23.505Z,634
2018-09-11T14:31:30.730Z,630
2018-09-11T14:32:37.948Z,637
2018-09-11T14:33:45.174Z,643
2018-09-11T14:34:52.395Z,640
2018-09-11T14:35:59.654Z,639
2018-09-11T14:37:06.321Z,647
2018-09-11T14:38:13.547Z,650
2018-09-11T14:39:20.770Z,644
2018-09-11T14:40:27.719Z,639
2018-09-11T14:41:34.674Z,644
2018-09-11T14:42:41.894Z,649
2018-09-11T14:43:49.112Z,651
2018-09-11T14:44:56.339Z,645
2018-09-11T14:46:03.562Z,642
2018-09-11T14:47:10.781Z,648
2018-09-11T14:48:18.001Z,648
2018-09-11T14:49:25.218Z,650
2018-09-11T14:50:32.451Z,649
2018-09-11T14:51:39.673Z,652
2018-09-11T14:52:47.105Z,646
2018-09-11T14:53:54.331Z,642
2018-09-11T14:55:01.291Z,640
2018-09-11T14:56:08.509Z,650
2018-09-11T14:57:15.826Z,652
2018-09-11T14:58:23.053Z,650
2018-09-11T14:59:30.310Z,655
2018-09-11T15:00:37.536Z,657
2018-09-11T15:01:44.758Z,651
2018-09-11T15:02:51.979Z,648
2018-09-11T15:03:59.198Z,643
2018-09-11T15:05:06.140Z,645
2018-09-11T15:06:13.361Z,642
2018-09-11T15:07:20.581Z,638
2018-09-11T15:08:27.804Z,637
2018-09-11T15:09:35.027Z,634
2018-09-11T15:10:42.248Z,638
2018-09-11T15:11:49.475Z,640
2018-09-11T15:12:56.699Z,636
2018-09-11T15:14:03.924Z,634
2018-09-11T15:15:11.191Z,634
2018-09-11T15:16:18.707Z,631
2018-09-11T15:17:25.657Z,638
2018-09-11T15:18:32.876Z,640
2018-09-11T15:19:40.102Z,643
2018-09-11T15:20:47.048Z,641
2018-09-11T15:21:54.271Z,648
2018-09-11T15:23:01.491Z,648
2018-09-11T15:24:08.714Z,647
2018-09-11T15:25:15.931Z,652
2018-09-11T15:26:22.873Z,655